HOURLY OBSERVATIONS


Time
(EST)
Temperature
°F
Dew Point
°F
Humidity
%
Wind
mph
Pressure
mb
Precip.
Hour
in
Precip.
Day
in
6 Hr
Max Temp
°F
6 Hr
Min Temp
°F
17 09:00 66 64 93 WNW 0 G 2 1014.0 0.69
17 08:00 66 64 93 SW 0 G 1 1013.5 0.69
17 07:00 65 63 93 Calm 1013.1 0.69 65 64
17 06:00 65 63 93 SSW 1 G 5 1012.6 0.07 0.69
17 05:00 65 63 93 Calm 1012.4 0.33 0.62
17 04:00 64 62 92 SSW 2 G 4 1012.0 0.27 0.29
17 03:00 64 61 91 SSW 0 G 2 1012.3 0.02 0.02
17 02:00 64 61 91 S 0 G 5 1012.1 0.00
17 01:00 64 61 92 S 1 G 4 1012.4 0.00 69 63
17 00:00 63 61 92 ENE 2 G 4 1011.9 1.18
16 23:00 63 61 92 ENE 0 G 3 1012.3 1.18
16 22:00 63 60 90 ENE 0 G 1 1012.3 1.18
16 21:00 63 60 89 NE 1 G 7 1011.5 1.18
16 20:00 67 62 85 N 0 G 5 1010.9 1.18
16 19:00 69 64 83 NNE 2 G 5 1010.5 1.18 74 69
16 18:00 70 64 81 W 3 G 7 1010.5 1.18
16 17:00 72 66 81 WNW 2 G 6 1009.7 1.18
16 16:00 72 67 85 NNW 1 G 6 1009.4 0.01 1.18
16 15:00 74 67 78 SW 5 G 13 1009.0 1.17
16 14:00 70 67 90 WSW 6 G 11 1008.8 1.17
16 13:00 69 67 94 WSW 3 G 11 1009.0 1.17 69 64
16 12:00 67 66 94 S 0 G 5 1009.5 0.01 1.17
16 11:00 66 64 94 SSW 1 G 3 1009.2 0.46 1.16
16 10:00 65 64 94 SW 0 G 2 1009.1 0.07 0.70
16 09:00 65 63 94 Calm 1009.4 0.63
16 08:00 64 63 94 SW 1 G 5 1009.7 0.63
16 07:00 64 62 93 SW 1 G 5 1008.8 0.63 65 64
16 06:00 64 62 93 W 0 G 6 1007.9 0.63
16 05:00 65 63 94 NNW 0 G 3 1006.4 0.01 0.63
16 04:00 65 63 93 Calm 1006.1 0.13 0.62
16 03:00 65 63 93 Calm 1006.3 0.04 0.49
16 02:00 65 63 93 Calm 1007.2 0.29 0.45
16 01:00 65 63 93 SW 3 G 7 1008.5 0.16 0.16 65 64
16 00:00 65 63 93 SE 0 G 4 1009.3 0.47 1.07
15 23:00 65 63 93 SSW 0 G 5 1010.9 0.04 0.60
15 22:00 64 62 92 Calm 1011.2 0.08 0.56
15 21:00 64 62 92 WSW 0 G 4 1011.3 0.01 0.48
15 20:00 64 62 92 SSW 1 G 6 1010.8 0.01 0.47
15 19:00 64 61 91 SW 1 G 5 1011.4 0.34 0.46 72 64
15 18:00 65 62 90 WSW 0 G 4 1011.5 0.05 0.12
15 17:00 66 62 87 S 1 G 6 1010.9 0.07 0.07
15 16:00 70 61 72 SW 5 G 10 1012.6 0.00
15 15:00 71 60 67 SSW 4 G 11 1012.7 0.00
15 14:00 72 60 66 SW 2 G 12 1012.5 0.00
15 13:00 72 60 67 SSW 4 G 16 1012.6 0.00 72 61
15 12:00 69 58 68 SW 6 G 13 1013.1 0.00
15 11:00 67 56 68 SW 5 G 13 1013.5 0.00
15 10:00 65 54 69 SSW 6 G 13 1013.7 0.00
15 09:00 63 53 70 SSW 6 G 11 1014.4 0.00
15 08:00 62 52 70 SSW 3 G 9 1014.8 0.00
15 07:00 62 52 70 SSW 2 G 7 1015.2 0.00 62 60
15 06:00 62 51 67 SW 5 G 11 1016.2 0.00
15 05:00 61 50 67 SW 1 G 7 1015.4 0.00
15 04:00 60 50 68 SSW 5 G 12 1015.3 0.00
15 03:00 60 49 69 SSW 4 G 13 1015.0 0.00
15 02:00 60 50 68 SSW 4 G 10 1015.2 0.00
15 01:00 61 50 67 SSW 3 G 8 1015.7 0.00 69 61
15 00:00 62 50 65 SW 4 G 8 1016.1 0.00
14 23:00 62 50 64 SSW 3 G 7 1016.0 0.01
14 22:00 63 50 61 S 3 G 8 1016.3 0.01
14 21:00 65 49 57 SSW 5 G 8 1016.4 0.01
14 20:00 67 50 55 SW 3 G 10 1016.1 0.01
14 19:00 69 49 48 SW 5 G 17 1016.1 0.01 71 69
14 18:00 70 49 47 WSW 6 G 14 1016.1 0.01
14 17:00 70 51 50 SW 6 G 17 1016.8 0.01
14 16:00 70 52 52 SSW 5 G 13 1017.3 0.01
14 15:00 70 50 48 W 3 G 9 1017.8 0.01
14 14:00 70 50 49 W 3 G 9 1018.6 0.01
14 13:00 69 50 50 WSW 4 G 8 1018.6 0.01 69 52
14 12:00 68 50 54 WSW 4 G 13 1019.1 0.01
14 11:00 65 51 62 W 3 G 9 1019.1 0.01
14 10:00 62 52 68 SW 1 G 7 1018.9 0.01